Time;durP1;ratioP1;P1;durP2;ratioP2;P2;SDS_P1;SDS_P2;PMS_P1;PMS_P2;Temp;Humidity;BMP_temperature;BMP_pressure;BME280_temperature;BME280_humidity;BME280_pressure;Samples;Min_cycle;Max_cycle;Signal;HPM_P1;HPM_P2
2021/06/07 00:02:16;;;;;;;;;11.75;9.00;;;;;19.61;60.52;102032.81;5054792;28;45375;-78
2021/06/07 00:04:42;;;;;;;;;8.50;7.50;;;;;19.57;60.23;102026.78;5052875;28;46225;-80
2021/06/07 00:07:10;;;;;;;;;10.75;8.00;;;;;19.58;60.55;102023.19;5051750;28;45439;-80
2021/06/07 00:09:37;;;;;;;;;10.00;8.00;;;;;19.49;60.28;102027.25;5052851;28;45612;-80
2021/06/07 00:12:16;;;;;;;;;10.50;8.50;;;;;19.34;60.45;102025.50;5051684;28;45648;-81
2021/06/07 00:14:41;;;;;;;;;9.00;8.75;;;;;19.26;60.78;102030.41;5059510;28;46200;-79
2021/06/07 00:17:07;;;;;;;;;10.75;10.25;;;;;19.15;60.87;102022.19;5053570;28;45470;-79
2021/06/07 00:19:35;;;;;;;;;8.50;8.50;;;;;19.07;61.01;102025.31;5052074;28;45391;-80
2021/06/07 00:22:01;;;;;;;;;7.00;6.25;;;;;18.98;61.25;102016.03;5052151;28;45465;-76
2021/06/07 00:24:26;;;;;;;;;9.00;8.50;;;;;18.95;61.49;102012.69;5051687;28;46156;-78
2021/06/07 00:26:52;;;;;;;;;11.75;10.25;;;;;18.87;61.65;102007.81;5052017;28;45394;-79
2021/06/07 00:29:18;;;;;;;;;11.00;10.50;;;;;18.81;62.31;102012.66;5054173;28;45497;-79
2021/06/07 00:31:43;;;;;;;;;9.50;9.50;;;;;18.77;62.05;102015.47;5032551;28;45437;-78
2021/06/07 00:34:10;;;;;;;;;12.50;9.50;;;;;18.71;62.25;102012.31;5051958;28;46046;-77
2021/06/07 00:36:36;;;;;;;;;12.00;9.50;;;;;18.66;62.13;102011.69;5051949;28;45526;-79
2021/06/07 00:39:05;;;;;;;;;9.00;9.00;;;;;18.62;62.72;102010.13;5052512;28;45552;-77
2021/06/07 00:41:30;;;;;;;;;10.00;9.75;;;;;18.57;62.82;102009.53;5052649;28;45379;-77
2021/06/07 00:43:58;;;;;;;;;11.25;10.25;;;;;18.47;62.94;102011.84;5052395;28;46839;-78
2021/06/07 00:46:25;;;;;;;;;9.25;9.25;;;;;18.46;62.99;102018.97;5051073;28;45671;-78
2021/06/07 00:48:52;;;;;;;;;9.50;8.25;;;;;18.41;63.49;102015.69;5051179;28;45380;-77
2021/06/07 00:51:19;;;;;;;;;10.75;10.00;;;;;18.36;63.59;102017.75;5052005;28;45352;-78
2021/06/07 00:53:44;;;;;;;;;10.50;9.00;;;;;18.30;63.50;102012.78;5052087;28;45859;-78
2021/06/07 00:56:11;;;;;;;;;11.75;10.00;;;;;18.25;63.61;102015.69;5053997;28;45392;-78
2021/06/07 00:58:44;;;;;;;;;10.00;8.50;;;;;18.22;63.94;102023.00;5053082;28;45575;-78
2021/06/07 01:01:12;;;;;;;;;11.50;8.75;;;;;18.17;63.84;102012.59;5051808;28;45518;-78
2021/06/07 01:03:39;;;;;;;;;10.00;10.00;;;;;18.14;63.94;102012.75;5051891;28;45441;-78
2021/06/07 01:06:05;;;;;;;;;8.00;7.00;;;;;18.09;64.42;102009.50;5052745;28;45325;-78
2021/06/07 01:08:31;;;;;;;;;7.75;7.00;;;;;18.03;64.20;102009.81;5053404;28;45418;-77
2021/06/07 01:10:57;;;;;;;;;11.50;10.00;;;;;18.02;64.45;102021.41;5052003;28;45456;-77
2021/06/07 01:13:24;;;;;;;;;14.50;10.00;;;;;17.98;64.55;102017.19;5052023;28;46033;-78
2021/06/07 01:15:51;;;;;;;;;8.50;7.25;;;;;17.95;64.65;102012.88;5051813;28;45626;-77
2021/06/07 01:18:18;;;;;;;;;13.25;9.50;;;;;17.93;64.49;102013.91;5051817;28;45391;-77
2021/06/07 01:20:44;;;;;;;;;11.00;8.75;;;;;17.90;64.65;102020.25;5034552;28;45347;-78
2021/06/07 01:23:09;;;;;;;;;7.25;7.25;;;;;17.87;64.90;102015.09;5054514;28;46544;-76
2021/06/07 01:25:38;;;;;;;;;9.25;9.25;;;;;17.83;64.73;102013.53;5054993;28;45376;-78
2021/06/07 01:28:06;;;;;;;;;8.25;8.00;;;;;17.82;64.90;102021.63;5055902;28;45572;-78
2021/06/07 01:30:35;;;;;;;;;6.50;6.50;;;;;17.78;64.98;102018.25;5054932;28;45382;-78
2021/06/07 01:33:01;;;;;;;;;11.75;9.25;;;;;17.77;65.41;102013.88;5055594;28;45465;-78
2021/06/07 01:35:28;;;;;;;;;8.00;8.00;;;;;17.73;65.81;102018.47;5057144;28;45363;-79
2021/06/07 01:37:55;;;;;;;;;9.50;9.00;;;;;17.69;65.79;102014.22;5056059;28;45901;-78
2021/06/07 01:40:24;;;;;;;;;9.25;9.00;;;;;17.65;65.44;102015.34;5054800;28;45505;-78
2021/06/07 01:42:50;;;;;;;;;10.75;10.00;;;;;17.62;65.69;102009.31;5055056;28;45284;-78
2021/06/07 01:45:19;;;;;;;;;11.50;8.75;;;;;17.58;66.11;102013.06;5055478;28;45447;-78
2021/06/07 01:47:45;;;;;;;;;9.75;9.75;;;;;17.55;66.18;102005.28;5054824;28;45597;-78
2021/06/07 01:50:12;;;;;;;;;8.25;8.00;;;;;17.51;66.07;102011.69;5056510;28;45460;-78
2021/06/07 01:52:43;;;;;;;;;12.00;8.50;;;;;17.45;66.27;102003.09;5054910;28;46425;-78
2021/06/07 01:55:23;;;;;;;;;9.50;9.50;;;;;17.40;66.36;102005.13;5054323;28;45476;-78
2021/06/07 01:57:51;;;;;;;;;10.50;10.25;;;;;17.37;66.30;102004.41;5054669;28;45477;-78
2021/06/07 02:00:21;;;;;;;;;9.50;8.75;;;;;17.33;66.62;102000.19;5054682;28;45543;-78
2021/06/07 02:02:47;;;;;;;;;9.25;9.25;;;;;17.23;66.42;101994.50;5054177;28;45418;-78
2021/06/07 02:05:17;;;;;;;;;8.50;8.00;;;;;17.27;66.69;101996.03;5038841;28;45390;-78
2021/06/07 02:07:51;;;;;;;;;8.00;7.50;;;;;17.24;66.87;101996.22;5054346;28;45342;-78
2021/06/07 02:10:19;;;;;;;;;8.25;6.00;;;;;17.20;66.59;101995.50;5054126;28;45419;-78
2021/06/07 02:12:44;;;;;;;;;9.25;9.25;;;;;17.16;66.91;102001.06;5053888;28;45274;-78
2021/06/07 02:15:11;;;;;;;;;10.50;9.75;;;;;17.11;67.01;101993.31;5038664;28;45485;-78
2021/06/07 02:17:38;;;;;;;;;8.25;8.25;;;;;17.13;67.16;101998.56;5054850;28;45946;-77
2021/06/07 02:20:07;;;;;;;;;10.00;9.25;;;;;17.09;67.14;101999.66;5055964;28;45387;-78
2021/06/07 02:22:38;;;;;;;;;11.25;8.00;;;;;17.05;67.43;101996.28;5054297;28;45489;-78
2021/06/07 02:25:05;;;;;;;;;11.00;9.00;;;;;17.02;67.33;101990.25;5053779;28;45419;-78
2021/06/07 02:27:31;;;;;;;;;10.00;9.00;;;;;16.95;67.36;101993.22;5053032;28;45320;-77
2021/06/07 02:29:57;;;;;;;;;10.50;10.00;;;;;16.97;67.58;101995.81;5055066;28;45527;-78
2021/06/07 02:32:23;;;;;;;;;12.50;10.00;;;;;16.94;67.47;101993.31;5055956;28;46576;-76
2021/06/07 02:34:49;;;;;;;;;10.75;10.50;;;;;16.92;67.62;102001.34;5036489;28;45882;-78
2021/06/07 02:37:14;;;;;;;;;11.75;11.00;;;;;16.88;67.67;101999.78;5054280;28;45754;-78
2021/06/07 02:39:39;;;;;;;;;10.25;8.50;;;;;16.87;67.74;101999.88;5054451;28;45434;-78
2021/06/07 02:42:05;;;;;;;;;12.50;10.00;;;;;16.83;68.00;101993.84;5053357;28;46156;-78
2021/06/07 02:44:31;;;;;;;;;10.25;8.75;;;;;16.80;68.10;101993.97;5055263;28;46471;-78
2021/06/07 02:46:56;;;;;;;;;6.50;6.50;;;;;16.74;68.12;101994.28;5055728;28;45336;-79
2021/06/07 02:49:22;;;;;;;;;10.75;9.00;;;;;16.74;68.42;102006.69;5054041;28;45562;-78
2021/06/07 02:51:47;;;;;;;;;11.00;8.00;;;;;16.73;68.13;101999.66;5054331;28;46169;-78
2021/06/07 02:54:13;;;;;;;;;9.50;9.50;;;;;16.69;68.53;102001.56;5054053;28;45455;-77
2021/06/07 02:56:38;;;;;;;;;11.25;10.00;;;;;16.64;68.31;101999.13;5035638;28;45682;-78
2021/06/07 02:59:04;;;;;;;;;11.25;8.00;;;;;16.65;68.23;101998.22;5056194;28;47000;-78
2021/06/07 03:01:29;;;;;;;;;11.00;10.75;;;;;16.57;68.59;101991.56;5053309;28;46040;-79
2021/06/07 03:03:54;;;;;;;;;10.75;9.00;;;;;16.62;68.38;102003.66;5052866;28;45391;-79
2021/06/07 03:06:20;;;;;;;;;12.75;9.50;;;;;16.60;68.44;102005.53;5053760;28;45277;-78
2021/06/07 03:08:45;;;;;;;;;7.75;7.00;;;;;16.59;68.63;102013.56;5054496;28;45354;-78
2021/06/07 03:11:12;;;;;;;;;12.00;11.00;;;;;16.52;68.58;102006.84;5055476;28;45411;-78
2021/06/07 03:13:39;;;;;;;;;8.50;8.50;;;;;16.53;68.67;102005.91;5053959;28;45358;-78
2021/06/07 03:16:08;;;;;;;;;11.25;10.00;;;;;16.51;68.57;102005.13;5052327;28;45616;-78
2021/06/07 03:18:33;;;;;;;;;11.00;11.00;;;;;16.50;68.56;102004.25;5053741;28;45505;-78
2021/06/07 03:20:59;;;;;;;;;10.00;9.00;;;;;16.49;68.80;102014.94;5053162;28;49966;-78
2021/06/07 03:23:31;;;;;;;;;13.50;10.25;;;;;16.47;69.25;102003.53;5055037;28;45449;-78
2021/06/07 03:25:57;;;;;;;;;11.00;10.50;;;;;16.40;68.54;102003.84;5054830;28;45350;-78
2021/06/07 03:28:23;;;;;;;;;13.50;11.50;;;;;16.41;69.05;102005.53;5052118;28;45362;-78
2021/06/07 03:30:51;;;;;;;;;10.75;10.75;;;;;16.37;69.02;102003.09;5053064;28;45330;-78
2021/06/07 03:33:18;;;;;;;;;13.25;10.25;;;;;16.35;69.39;102010.28;5053934;28;45619;-79
2021/06/07 03:35:45;;;;;;;;;10.00;9.50;;;;;16.33;69.35;102006.84;5053872;28;45517;-78
2021/06/07 03:38:11;;;;;;;;;9.50;9.25;;;;;16.31;69.41;102000.75;5055607;28;45764;-78
2021/06/07 03:40:39;;;;;;;;;8.75;8.75;;;;;16.28;69.28;102004.38;5052896;28;46480;-79
2021/06/07 03:43:06;;;;;;;;;9.25;9.25;;;;;16.22;69.59;101999.38;5053324;28;45438;-78
2021/06/07 03:45:32;;;;;;;;;9.00;9.00;;;;;16.22;69.43;101994.06;5050904;28;45780;-78
2021/06/07 03:47:57;;;;;;;;;12.25;12.00;;;;;16.24;69.55;102000.19;5053855;28;45506;-78
2021/06/07 03:50:26;;;;;;;;;9.75;8.75;;;;;16.23;69.34;102000.22;5054779;28;46999;-78
2021/06/07 03:52:52;;;;;;;;;11.75;9.75;;;;;16.20;69.49;102001.25;5054840;28;45777;-78
2021/06/07 03:55:19;;;;;;;;;11.25;10.00;;;;;16.22;69.71;102003.81;5051826;28;45281;-78
2021/06/07 03:57:45;;;;;;;;;12.00;10.25;;;;;16.20;68.82;102003.91;5053122;28;45538;-78
2021/06/07 04:00:14;;;;;;;;;14.25;11.00;;;;;16.19;69.65;101999.53;5052759;28;45965;-76
2021/06/07 04:02:40;;;;;;;;;10.50;9.75;;;;;16.20;69.64;102006.56;5053202;28;45537;-78
2021/06/07 04:05:07;;;;;;;;;10.75;10.75;;;;;16.20;69.36;101997.75;5055202;28;45402;-78
2021/06/07 04:07:34;;;;;;;;;9.75;8.00;;;;;16.17;69.83;101988.97;5052626;28;46809;-78
2021/06/07 04:10:00;;;;;;;;;11.00;10.00;;;;;16.22;69.80;102002.03;5052189;28;47396;-78
2021/06/07 04:12:25;;;;;;;;;10.00;9.25;;;;;16.22;69.91;101994.06;5047039;28;45450;-78
2021/06/07 04:14:50;;;;;;;;;10.25;9.00;;;;;16.24;69.68;101994.03;5052411;28;45733;-77
2021/06/07 04:17:16;;;;;;;;;10.00;9.00;;;;;16.24;69.80;101994.88;5055323;28;45608;-78
2021/06/07 04:19:41;;;;;;;;;12.00;10.75;;;;;16.28;69.54;101996.44;5052835;28;45446;-78
2021/06/07 04:22:06;;;;;;;;;10.75;10.75;;;;;16.25;69.94;101990.44;5052221;28;45550;-78
2021/06/07 04:24:32;;;;;;;;;11.25;10.25;;;;;16.15;69.82;101974.94;5052860;28;45489;-79
2021/06/07 04:26:57;;;;;;;;;13.25;12.25;;;;;16.32;69.77;101997.16;5052654;28;45376;-78
2021/06/07 04:29:23;;;;;;;;;12.00;11.00;;;;;16.35;69.92;102008.50;5053607;28;45470;-79
2021/06/07 04:31:48;;;;;;;;;13.25;9.50;;;;;16.35;69.65;102000.53;5051763;28;45397;-78
2021/06/07 04:34:14;;;;;;;;;15.50;12.00;;;;;16.38;69.91;101997.72;5051734;28;45304;-78
2021/06/07 04:36:39;;;;;;;;;9.75;8.75;;;;;16.41;69.95;101994.94;5051923;28;45471;-78
2021/06/07 04:39:06;;;;;;;;;14.25;11.50;;;;;16.43;69.96;101998.38;5052733;28;53329;-78
2021/06/07 04:41:31;;;;;;;;;10.50;10.00;;;;;16.47;69.67;101993.78;5052605;28;45935;-78
2021/06/07 04:43:57;;;;;;;;;14.50;12.00;;;;;16.52;69.62;102006.84;5053348;28;45426;-78
2021/06/07 04:46:22;;;;;;;;;14.00;12.00;;;;;16.55;69.63;102004.00;5052496;28;45549;-78
2021/06/07 04:48:47;;;;;;;;;12.50;10.00;;;;;16.60;69.52;101996.69;5051875;28;49862;-78
2021/06/07 04:51:13;;;;;;;;;12.50;10.00;;;;;16.65;69.49;102002.63;5052021;28;45519;-78
2021/06/07 04:53:38;;;;;;;;;11.75;11.75;;;;;16.68;69.22;102006.03;5052028;28;45558;-78
2021/06/07 04:56:04;;;;;;;;;12.00;11.50;;;;;16.68;69.29;101995.41;5054384;28;49839;-78
2021/06/07 04:58:30;;;;;;;;;11.25;10.25;;;;;16.79;69.02;102004.66;5050629;28;45495;-78
2021/06/07 05:01:02;;;;;;;;;13.00;11.25;;;;;16.84;69.14;102005.31;5055326;28;45301;-78
2021/06/07 05:03:28;;;;;;;;;10.75;9.50;;;;;16.87;69.29;101992.75;5055060;28;45376;-79
2021/06/07 05:05:55;;;;;;;;;11.25;10.50;;;;;17.18;68.63;102000.06;5054917;28;45523;-78
2021/06/07 05:08:21;;;;;;;;;11.75;11.00;;;;;17.23;68.25;101999.81;5057501;28;46397;-78
2021/06/07 05:10:46;;;;;;;;;15.25;10.75;;;;;17.30;67.54;101998.56;5055942;28;45768;-78
2021/06/07 05:13:13;;;;;;;;;14.00;13.75;;;;;17.37;67.18;102001.75;5055087;28;45758;-78
2021/06/07 05:15:39;;;;;;;;;11.75;10.00;;;;;17.36;67.15;101997.38;5054005;28;45722;-79
2021/06/07 05:18:06;;;;;;;;;14.00;12.75;;;;;17.46;66.80;102004.81;5055964;28;45478;-79
2021/06/07 05:20:31;;;;;;;;;10.75;10.00;;;;;17.53;66.89;102007.13;5055706;28;45988;-78
2021/06/07 05:22:58;;;;;;;;;12.50;11.75;;;;;17.59;66.65;102010.38;5057658;28;45398;-78
2021/06/07 05:25:24;;;;;;;;;12.00;12.00;;;;;17.69;66.27;102008.06;5054907;28;45577;-78
2021/06/07 05:27:51;;;;;;;;;10.00;10.00;;;;;17.75;66.20;102007.78;5055223;28;46269;-78
2021/06/07 05:30:18;;;;;;;;;13.00;11.00;;;;;17.77;65.46;102005.91;5055492;28;45390;-78
2021/06/07 05:32:44;;;;;;;;;15.00;12.25;;;;;17.79;65.52;102005.81;5037543;28;45540;-79
2021/06/07 05:35:12;;;;;;;;;12.00;11.75;;;;;17.90;65.33;102009.59;5056163;28;45509;-79
2021/06/07 05:37:38;;;;;;;;;15.00;13.75;;;;;18.05;65.22;102002.59;5054457;28;45621;-78
2021/06/07 05:40:06;;;;;;;;;13.00;10.50;;;;;18.13;64.80;102005.72;5055402;28;45439;-78
2021/06/07 05:42:33;;;;;;;;;16.00;10.50;;;;;18.20;64.68;102015.06;5052155;28;45685;-79
2021/06/07 05:44:58;;;;;;;;;14.50;12.00;;;;;18.36;64.34;102011.56;5055290;28;45414;-78
2021/06/07 05:47:23;;;;;;;;;15.75;15.00;;;;;18.67;64.18;102008.06;5057026;28;45341;-78
2021/06/07 05:49:49;;;;;;;;;15.00;11.00;;;;;19.20;63.54;102004.13;5055298;28;45385;-78
2021/06/07 05:52:14;;;;;;;;;12.00;12.00;;;;;19.78;62.81;102016.66;5053686;28;45444;-78
2021/06/07 05:54:40;;;;;;;;;12.75;12.00;;;;;20.29;61.49;102007.19;5054650;28;45445;-78
2021/06/07 05:57:07;;;;;;;;;13.25;10.25;;;;;20.69;60.75;102006.50;5055200;28;46188;-79
2021/06/07 05:59:35;;;;;;;;;10.00;10.00;;;;;21.06;60.03;102007.56;5055842;28;45938;-78
2021/06/07 06:02:01;;;;;;;;;11.75;10.50;;;;;21.31;59.00;102012.16;5055367;28;45476;-78
2021/06/07 06:04:26;;;;;;;;;16.75;10.50;;;;;21.32;58.64;102004.03;5054296;28;45582;-78
2021/06/07 06:06:51;;;;;;;;;14.50;11.75;;;;;21.42;58.29;102014.97;5055564;28;46720;-77
2021/06/07 06:09:17;;;;;;;;;14.25;12.00;;;;;21.31;57.70;102007.66;5054279;28;45422;-78
2021/06/07 06:11:42;;;;;;;;;9.25;9.00;;;;;21.27;57.54;102007.94;5054959;28;45530;-78
2021/06/07 06:14:09;;;;;;;;;11.50;11.00;;;;;21.22;57.64;102010.94;5056641;28;45608;-78
2021/06/07 06:16:34;;;;;;;;;10.00;9.50;;;;;21.15;57.23;102014.13;5053804;28;47299;-78
2021/06/07 06:19:00;;;;;;;;;17.50;11.25;;;;;21.04;57.27;102012.19;5054456;28;45366;-78
2021/06/07 06:21:26;;;;;;;;;13.00;11.00;;;;;20.94;57.48;102006.59;5053177;28;45491;-78
2021/06/07 06:23:52;;;;;;;;;13.50;12.25;;;;;20.83;57.59;102009.13;5054332;28;45605;-77
2021/06/07 06:26:18;;;;;;;;;11.50;10.25;;;;;20.76;57.72;102013.97;5056569;28;48801;-78
2021/06/07 06:28:43;;;;;;;;;13.00;12.75;;;;;20.69;57.31;102017.19;5054082;28;45867;-78
2021/06/07 06:31:09;;;;;;;;;13.00;12.00;;;;;20.59;57.51;102014.25;5048732;28;45490;-78
2021/06/07 06:33:35;;;;;;;;;15.00;13.50;;;;;20.59;57.62;102019.59;5053618;28;45457;-77
2021/06/07 06:36:00;;;;;;;;;9.50;9.00;;;;;20.57;57.72;102017.03;5054571;28;46137;-78
2021/06/07 06:38:26;;;;;;;;;16.25;13.75;;;;;20.56;57.29;102027.78;5055731;28;45372;-78
2021/06/07 06:40:53;;;;;;;;;10.50;9.75;;;;;20.54;57.73;102024.38;5054983;28;45336;-77
2021/06/07 06:43:19;;;;;;;;;16.25;15.75;;;;;20.33;57.62;101986.50;5054462;28;45285;-77
2021/06/07 06:45:45;;;;;;;;;11.25;11.00;;;;;20.59;58.13;102014.25;5054108;28;46098;-78
2021/06/07 06:48:10;;;;;;;;;12.50;10.75;;;;;20.61;57.71;102014.97;5053119;28;45492;-76
2021/06/07 06:50:39;;;;;;;;;13.50;11.00;;;;;20.63;57.68;102013.09;5056031;28;45499;-78
2021/06/07 06:53:11;;;;;;;;;16.25;11.25;;;;;20.68;57.05;102004.78;5032368;28;45511;-78
2021/06/07 06:55:36;;;;;;;;;13.25;12.50;;;;;20.73;57.09;102008.88;5050550;28;46080;-79
2021/06/07 06:58:03;;;;;;;;;13.75;10.75;;;;;20.65;56.76;101991.59;5057202;28;45446;-78
2021/06/07 07:00:36;;;;;;;;;12.00;11.50;;;;;20.79;56.86;102010.28;5054684;28;45483;-83
2021/06/07 07:03:06;;;;;;;;;14.75;12.50;;;;;20.81;57.04;102005.66;5052817;28;45514;-79
2021/06/07 07:05:32;;;;;;;;;17.25;13.75;;;;;20.90;57.03;102013.09;5043933;28;47078;-79
2021/06/07 07:07:58;;;;;;;;;12.75;12.75;;;;;20.96;56.16;102004.66;5054055;28;45528;-78
2021/06/07 07:10:23;;;;;;;;;12.50;9.50;;;;;21.05;56.33;102012.06;5053048;28;45437;-78
2021/06/07 07:12:49;;;;;;;;;14.25;12.25;;;;;21.14;56.65;102020.41;5052636;28;45298;-79
2021/06/07 07:15:15;;;;;;;;;12.75;10.50;;;;;21.16;55.24;102011.34;5050524;28;45435;-79
2021/06/07 07:17:40;;;;;;;;;13.00;12.00;;;;;21.31;55.75;102021.03;5050367;28;45420;-77
2021/06/07 07:20:07;;;;;;;;;13.25;11.00;;;;;21.46;56.30;102018.28;5052939;28;45323;-78
2021/06/07 07:22:33;;;;;;;;;13.50;11.00;;;;;21.59;55.15;102022.69;5051604;28;45380;-79
2021/06/07 07:24:59;;;;;;;;;13.50;12.75;;;;;21.67;54.71;102023.97;5058854;28;45398;-78
2021/06/07 07:27:24;;;;;;;;;11.00;10.25;;;;;21.74;54.73;102020.75;5057612;28;45324;-78
2021/06/07 07:29:50;;;;;;;;;8.25;7.00;;;;;21.88;54.33;102023.34;5052686;28;45536;-78
2021/06/07 07:32:16;;;;;;;;;15.75;9.75;;;;;22.04;54.72;102024.94;5052902;28;45322;-79
2021/06/07 07:34:41;;;;;;;;;12.25;8.50;;;;;22.19;54.12;102015.84;5052032;28;45533;-79
2021/06/07 07:37:09;;;;;;;;;11.25;9.75;;;;;22.39;54.23;102017.06;5052813;28;47406;-80
2021/06/07 07:39:35;;;;;;;;;11.50;8.75;;;;;22.57;54.14;102006.84;5046157;28;45620;-79
2021/06/07 07:42:00;;;;;;;;;13.50;9.75;;;;;22.79;53.95;102000.75;5048936;28;45577;-79
2021/06/07 07:44:26;;;;;;;;;12.50;10.00;;;;;23.47;53.00;102013.44;5047084;28;45505;-79
2021/06/07 07:46:52;;;;;;;;;14.25;12.75;;;;;24.20;51.80;102013.06;5043415;28;45530;-78
2021/06/07 07:49:18;;;;;;;;;15.50;11.25;;;;;24.84;50.71;102003.41;5038025;28;45987;-79
2021/06/07 07:51:44;;;;;;;;;15.25;13.25;;;;;25.63;49.59;102014.66;5037662;28;45635;-79
2021/06/07 07:54:10;;;;;;;;;14.00;10.00;;;;;26.66;47.35;102017.22;5036854;28;46108;-79
2021/06/07 07:56:36;;;;;;;;;16.00;11.00;;;;;26.93;46.78;102011.13;5043396;28;45442;-79
2021/06/07 07:59:02;;;;;;;;;11.75;9.75;;;;;27.82;46.78;102006.38;5043198;28;45369;-83
2021/06/07 08:01:28;;;;;;;;;10.00;8.00;;;;;28.72;44.79;102011.03;5047586;28;45393;-79
2021/06/07 08:03:53;;;;;;;;;16.00;11.25;;;;;29.55;42.91;102008.94;5046813;28;46326;-79
2021/06/07 08:06:19;;;;;;;;;13.00;11.75;;;;;31.77;41.65;102011.94;5043201;28;45510;-79
2021/06/07 08:08:44;;;;;;;;;10.00;10.00;;;;;34.45;38.92;102007.25;5052069;28;45402;-78
2021/06/07 08:11:11;;;;;;;;;9.50;9.50;;;;;36.52;35.84;102006.72;5050634;28;45630;-78
2021/06/07 08:13:37;;;;;;;;;10.25;9.00;;;;;38.07;34.27;102008.13;5050358;28;45999;-76
2021/06/07 08:16:02;;;;;;;;;11.75;10.00;;;;;38.92;31.94;102007.88;5044774;28;45426;-78
2021/06/07 08:18:28;;;;;;;;;13.50;11.25;;;;;40.13;31.19;102007.31;5039803;28;45694;-78
2021/06/07 08:20:53;;;;;;;;;11.00;10.00;;;;;40.30;28.28;102002.00;5033165;28;45630;-77
2021/06/07 08:23:19;;;;;;;;;9.75;9.00;;;;;40.05;28.45;102015.06;5053189;28;45475;-78
2021/06/07 08:25:44;;;;;;;;;12.50;9.50;;;;;39.61;28.00;102019.75;5047494;28;45446;-78
2021/06/07 08:28:10;;;;;;;;;10.00;9.25;;;;;39.12;27.59;102014.06;5050249;28;45415;-77
2021/06/07 08:30:36;;;;;;;;;12.00;11.25;;;;;38.96;28.17;102011.88;5049759;28;45489;-77
2021/06/07 08:33:03;;;;;;;;;14.00;12.00;;;;;40.63;27.73;102017.25;5050254;28;45422;-75
2021/06/07 08:35:29;;;;;;;;;8.75;8.75;;;;;42.91;26.11;102020.63;5053347;28;45678;-78
2021/06/07 08:37:55;;;;;;;;;7.50;7.00;;;;;45.35;24.85;102018.31;5051603;28;45585;-78
2021/06/07 08:40:21;;;;;;;;;8.00;6.50;;;;;47.10;22.06;102022.19;5048082;28;45510;-78
2021/06/07 08:42:46;;;;;;;;;10.25;9.00;;;;;48.61;20.85;102024.63;5051168;28;46737;-76
2021/06/07 08:45:16;;;;;;;;;9.00;7.25;;;;;50.11;19.05;102023.53;5050856;28;45446;-76
2021/06/07 08:47:43;;;;;;;;;9.75;7.50;;;;;51.52;18.50;102031.00;5050973;28;45629;-76
2021/06/07 08:50:12;;;;;;;;;7.50;7.50;;;;;52.42;16.91;102030.09;5052613;28;45654;-76
2021/06/07 08:52:42;;;;;;;;;8.00;6.50;;;;;53.24;16.60;102032.78;5051326;28;46452;-76
2021/06/07 08:55:09;;;;;;;;;8.25;8.00;;;;;54.29;15.61;102031.84;5047724;28;45408;-76
2021/06/07 08:57:42;;;;;;;;;8.75;7.25;;;;;55.13;14.82;102021.94;5050038;28;45522;-76
2021/06/07 09:00:10;;;;;;;;;6.50;6.50;;;;;56.21;14.67;102030.72;5051962;28;45437;-75
2021/06/07 09:02:37;;;;;;;;;7.75;6.25;;;;;57.17;13.25;102028.56;5050523;28;45491;-76
2021/06/07 09:05:05;;;;;;;;;6.00;5.00;;;;;58.01;13.84;102030.84;5033724;28;45569;-76
2021/06/07 09:07:30;;;;;;;;;6.25;5.50;;;;;58.49;12.51;102034.66;5050417;28;45357;-76
2021/06/07 09:10:11;;;;;;;;;5.75;5.75;;;;;58.76;11.38;102027.28;5049399;28;45465;-76
2021/06/07 09:12:41;;;;;;;;;8.75;6.25;;;;;58.93;11.46;102021.25;5051355;28;45529;-76
2021/06/07 09:15:07;;;;;;;;;8.00;6.75;;;;;59.52;11.07;102027.97;5051193;28;45853;-76
2021/06/07 09:17:43;;;;;;;;;7.75;7.75;;;;;60.00;10.73;102023.00;5051027;28;45441;-75
2021/06/07 09:20:17;;;;;;;;;6.00;5.00;;;;;60.55;11.09;102037.91;5051970;28;45439;-76
2021/06/07 09:22:53;;;;;;;;;6.00;6.00;;;;;61.00;9.97;102031.41;5049432;28;47512;-75
2021/06/07 09:25:26;;;;;;;;;6.50;5.75;;;;;61.22;10.11;102028.91;5050733;28;45636;-76
2021/06/07 09:28:23;;;;;;;;;6.25;5.75;;;;;61.60;9.31;102027.84;5050732;28;45620;-78
2021/06/07 09:30:51;;;;;;;;;5.50;5.00;;;;;62.03;9.65;102039.81;5051562;28;45415;-77
2021/06/07 09:33:17;;;;;;;;;6.50;6.50;;;;;62.35;9.37;102019.47;5049999;28;45754;-76
2021/06/07 09:35:44;;;;;;;;;5.00;5.00;;;;;62.72;8.88;102027.97;5049634;28;46124;-78
2021/06/07 09:38:10;;;;;;;;;5.75;4.75;;;;;62.71;8.67;102030.00;5053275;28;45427;-77
2021/06/07 09:40:35;;;;;;;;;3.75;3.75;;;;;62.35;8.91;102025.16;5051111;28;45387;-78
2021/06/07 09:43:03;;;;;;;;;5.00;4.50;;;;;62.07;8.72;102026.44;5050822;28;47059;-77
2021/06/07 09:45:45;;;;;;;;;5.00;5.00;;;;;61.80;7.93;102025.69;5052520;28;45464;-78
2021/06/07 09:48:13;;;;;;;;;4.25;3.00;;;;;62.28;8.37;102023.84;5054313;28;45343;-76
2021/06/07 09:50:58;;;;;;;;;5.00;4.75;;;;;62.90;8.38;102034.63;5054093;28;45350;-78
2021/06/07 09:53:42;;;;;;;;;2.00;1.00;;;;;63.28;7.59;102026.75;5052609;28;46389;-79
2021/06/07 09:56:08;;;;;;;;;2.50;2.50;;;;;63.81;7.51;102029.94;5052624;28;45411;-80
2021/06/07 09:58:37;;;;;;;;;2.75;2.00;;;;;64.54;6.69;102026.09;5054463;28;45464;-78
2021/06/07 10:01:16;;;;;;;;;3.00;3.00;;;;;65.04;6.48;102035.47;5053829;28;45992;-79
2021/06/07 10:03:43;;;;;;;;;4.00;4.00;;;;;65.37;6.35;102033.34;5052015;28;46224;-80
2021/06/07 10:06:20;;;;;;;;;2.50;2.50;;;;;65.35;6.63;102015.78;5053518;28;45823;-79
2021/06/07 10:08:52;;;;;;;;;2.25;2.00;;;;;64.92;6.85;102027.28;5036333;28;45443;-79
2021/06/07 10:11:23;;;;;;;;;6.50;5.25;;;;;64.29;6.96;102015.41;5055417;28;45709;-78
2021/06/07 10:13:50;;;;;;;;;4.50;4.50;;;;;63.77;7.26;102009.13;5046692;28;45351;-81
2021/06/07 10:16:16;;;;;;;;;4.00;2.00;;;;;63.62;6.88;102004.56;5047702;28;45692;-80
2021/06/07 10:18:42;;;;;;;;;2.00;2.00;;;;;63.30;6.82;102005.19;5054110;28;45444;-80
2021/06/07 10:21:10;;;;;;;;;3.00;2.50;;;;;62.87;7.48;102008.97;5053916;28;45388;-80
2021/06/07 10:23:36;;;;;;;;;3.50;2.00;;;;;62.63;6.70;102002.66;5054587;28;46245;-74
2021/06/07 10:26:04;;;;;;;;;1.75;1.75;;;;;62.55;6.47;102003.78;5053506;28;45482;-79
2021/06/07 10:28:36;;;;;;;;;2.00;2.00;;;;;62.42;6.96;102000.41;5049012;28;45578;-79
2021/06/07 10:31:28;;;;;;;;;1.75;1.00;;;;;62.26;6.75;101997.81;5048048;28;45475;-81
2021/06/07 10:34:01;;;;;;;;;3.50;3.50;;;;;62.10;6.90;101999.25;5049396;28;46603;-79
2021/06/07 10:36:26;;;;;;;;;2.25;1.00;;;;;60.25;6.72;101995.97;5053785;28;45565;-79
2021/06/07 10:39:13;;;;;;;;;2.67;1.67;;;;;56.18;8.39;101989.94;5053983;28;45339;-78
2021/06/07 10:41:40;;;;;;;;;3.25;3.25;;;;;51.95;9.64;101980.16;5052166;28;45343;-79
2021/06/07 10:44:06;;;;;;;;;3.00;1.75;;;;;48.57;10.60;101976.13;5055924;28;45372;-79
2021/06/07 10:46:33;;;;;;;;;3.00;2.00;;;;;45.82;11.98;101971.09;5052917;28;45479;-80
2021/06/07 10:49:02;;;;;;;;;6.00;4.50;;;;;43.76;13.18;101977.09;5052646;28;45548;-79
2021/06/07 10:51:31;;;;;;;;;3.50;3.00;;;;;42.06;14.00;101974.56;5051286;28;45399;-80
2021/06/07 10:54:27;;;;;;;;;4.25;4.25;;;;;40.10;15.10;101968.41;5053274;28;45479;-80
2021/06/07 10:56:53;;;;;;;;;3.75;3.75;;;;;38.77;15.92;101967.00;5050929;28;45788;-81
2021/06/07 10:59:18;;;;;;;;;3.00;3.00;;;;;37.89;16.42;101961.34;5054493;28;45651;-80
2021/06/07 11:01:53;;;;;;;;;4.00;2.50;;;;;37.23;17.05;101970.53;5053294;28;45403;-80
2021/06/07 11:04:35;;;;;;;;;3.25;2.00;;;;;36.66;17.87;101962.94;5048292;28;45628;-76
2021/06/07 11:07:18;;;;;;;;;3.00;2.50;;;;;36.24;19.18;101981.34;5053045;28;45463;-81
2021/06/07 11:10:11;;;;;;;;;5.75;3.50;;;;;35.76;18.88;101973.97;5052710;28;45464;-78
2021/06/07 11:12:38;;;;;;;;;2.75;2.75;;;;;35.32;19.00;101962.50;5055823;28;45462;-81
2021/06/07 11:15:14;;;;;;;;;4.00;4.00;;;;;34.89;19.66;101970.75;5054515;28;46108;-79
2021/06/07 11:17:41;;;;;;;;;3.00;3.00;;;;;34.59;19.50;101970.03;5052347;28;48124;-75
2021/06/07 11:20:08;;;;;;;;;4.00;4.00;;;;;34.27;20.74;101962.13;5055588;28;45438;-74